createdAt,value
2022-11-07T00:03:05.394Z,74.90
2022-11-07T00:08:05.610Z,73.10
2022-11-07T00:13:05.909Z,48.10
2022-11-07T00:18:04.117Z,56.40
2022-11-07T00:23:03.503Z,50.50
2022-11-07T00:28:02.505Z,65.50
2022-11-07T00:33:01.695Z,47.00
2022-11-07T00:38:00.918Z,39.90
2022-11-07T00:43:00.156Z,80.50
2022-11-07T00:47:58.469Z,72.20
2022-11-07T00:53:00.664Z,79.20
2022-11-07T00:57:56.911Z,58.80
2022-11-07T01:02:56.230Z,134.70
2022-11-07T01:07:56.309Z,83.70
2022-11-07T01:12:54.606Z,170.80
2022-11-07T01:17:54.893Z,298.80
2022-11-07T01:22:54.087Z,119.30
2022-11-07T01:27:53.315Z,96.00
2022-11-07T01:32:53.501Z,84.80
2022-11-07T01:37:53.689Z,67.90
2022-11-07T01:42:50.888Z,69.30
2022-11-07T01:47:50.054Z,72.50
2022-11-07T01:52:50.244Z,64.20
2022-11-07T01:57:49.542Z,56.80
2022-11-07T02:02:47.989Z,57.00
2022-11-07T02:07:47.197Z,52.80
2022-11-07T02:12:47.353Z,44.30
2022-11-07T02:17:45.520Z,46.20
2022-11-07T02:22:44.832Z,33.30
2022-11-07T02:27:44.163Z,38.30
2022-11-07T02:32:43.285Z,31.90
2022-11-07T02:37:43.587Z,28.80
2022-11-07T02:42:41.907Z,28.40
2022-11-07T02:47:42.226Z,23.60
2022-11-07T02:52:40.605Z,21.50
2022-11-07T02:57:40.745Z,17.40
2022-11-07T03:02:39.004Z,17.40
2022-11-07T03:07:38.055Z,18.10
2022-11-07T03:12:37.453Z,21.20
2022-11-07T03:17:36.653Z,24.30
2022-11-07T03:22:36.804Z,25.90
2022-11-07T03:27:34.907Z,16.70
2022-11-07T03:32:34.203Z,22.90
2022-11-07T03:37:34.498Z,21.60
2022-11-07T03:42:32.793Z,16.60
2022-11-07T03:47:33.103Z,20.70
2022-11-07T03:52:32.433Z,18.60
2022-11-07T03:57:30.772Z,17.60
2022-11-07T04:02:29.978Z,12.20
2022-11-07T04:07:30.195Z,11.50
2022-11-07T04:12:28.521Z,14.90
2022-11-07T04:17:27.818Z,10.90
2022-11-07T04:22:28.972Z,8.30
2022-11-07T04:27:26.170Z,9.50
2022-11-07T04:32:26.282Z,5.40
2022-11-07T04:37:25.589Z,6.30
2022-11-07T04:42:25.931Z,9.90
2022-11-07T04:47:23.233Z,9.40
2022-11-07T04:52:22.547Z,9.30
2022-11-07T04:57:23.891Z,6.80
2022-11-07T05:02:21.264Z,6.90
2022-11-07T05:07:20.420Z,9.90
2022-11-07T05:12:19.769Z,6.60
2022-11-07T05:17:20.843Z,6.50
2022-11-07T05:22:19.084Z,7.00
2022-11-07T05:27:17.409Z,7.10
2022-11-07T05:32:16.528Z,6.90
2022-11-07T05:37:17.851Z,5.70
2022-11-07T05:42:16.126Z,5.80
2022-11-07T05:47:16.405Z,4.40
2022-11-07T05:52:13.688Z,6.60
2022-11-07T05:57:15.001Z,4.90
2022-11-07T06:02:13.445Z,6.50
2022-11-07T06:07:12.519Z,6.20
2022-11-07T06:12:11.665Z,5.10
2022-11-07T06:17:10.799Z,4.60
2022-11-07T06:22:08.964Z,7.40
2022-11-07T06:27:09.125Z,6.10
2022-11-07T06:32:07.316Z,6.20
2022-11-07T06:37:08.442Z,5.20
2022-11-07T06:42:05.555Z,5.60
2022-11-07T06:47:04.874Z,5.70
2022-11-07T06:52:04.167Z,5.30
2022-11-07T06:57:04.477Z,4.80
2022-11-07T07:02:03.861Z,4.40
2022-11-07T07:07:00.953Z,4.30
2022-11-07T07:12:01.335Z,4.10
2022-11-07T07:17:00.458Z,4.00
2022-11-07T07:22:00.773Z,4.00
2022-11-07T07:27:00.106Z,3.90
2022-11-07T07:31:59.228Z,3.90
2022-11-07T07:36:57.553Z,3.40
2022-11-07T07:41:57.873Z,3.20
2022-11-07T07:46:56.191Z,3.10
2022-11-07T07:51:55.519Z,2.40
2022-11-07T07:56:54.896Z,2.80
2022-11-07T08:01:57.053Z,2.10
2022-11-07T08:06:54.284Z,2.50
2022-11-07T08:11:53.666Z,2.20
2022-11-07T08:16:51.847Z,2.20
2022-11-07T08:21:51.938Z,2.00
2022-11-07T08:26:54.277Z,1.90
2022-11-07T08:31:50.649Z,2.30
2022-11-07T08:36:49.750Z,3.00
2022-11-07T08:41:48.115Z,2.00
2022-11-07T08:46:48.251Z,2.00
2022-11-07T08:51:47.403Z,2.10
2022-11-07T08:56:45.522Z,1.80
2022-11-07T09:02:15.187Z,2.40
2022-11-07T09:06:45.037Z,2.50
2022-11-07T09:11:43.392Z,2.70
2022-11-07T09:16:43.719Z,2.10
2022-11-07T09:21:43.037Z,2.30
2022-11-07T09:26:41.336Z,3.90
2022-11-07T09:31:42.715Z,4.50
2022-11-07T09:36:40.802Z,3.50
2022-11-07T09:41:39.098Z,4.10
2022-11-07T09:46:39.406Z,3.70
2022-11-07T09:51:37.712Z,4.10
2022-11-07T09:56:38.021Z,4.00
2022-11-07T10:01:36.527Z,5.60
2022-11-07T10:06:36.509Z,3.60
2022-11-07T10:11:35.952Z,4.80
2022-11-07T10:16:35.071Z,5.20
2022-11-07T10:21:38.714Z,4.10
2022-11-07T10:26:32.592Z,4.70
2022-11-07T10:31:32.697Z,4.70
2022-11-07T10:36:30.836Z,3.00
2022-11-07T10:41:30.424Z,3.50
2022-11-07T10:46:29.336Z,5.00
2022-11-07T10:51:28.676Z,4.00
2022-11-07T10:56:27.877Z,4.60
2022-11-07T11:01:28.177Z,4.20
2022-11-07T11:06:26.443Z,4.10
2022-11-07T11:11:26.762Z,3.90
2022-11-07T11:16:24.869Z,2.90
2022-11-07T11:21:24.283Z,2.50
2022-11-07T11:26:23.592Z,2.20
2022-11-07T11:31:22.783Z,3.80
2022-11-07T11:36:22.904Z,2.90
2022-11-07T11:41:21.246Z,2.50
2022-11-07T11:46:20.469Z,1.80
2022-11-07T11:51:19.559Z,2.40
2022-11-07T11:56:18.953Z,1.80
2022-11-07T12:01:18.235Z,2.50
2022-11-07T12:06:17.536Z,2.20
2022-11-07T12:11:16.651Z,2.50
2022-11-07T12:16:16.771Z,2.60
2022-11-07T12:21:16.063Z,2.80
2022-11-07T12:26:14.383Z,3.20
2022-11-07T12:31:13.685Z,2.80
2022-11-07T12:36:13.044Z,2.00
2022-11-07T12:41:12.191Z,2.00
2022-11-07T12:46:11.386Z,2.00
2022-11-07T12:51:10.522Z,2.50
2022-11-07T12:56:10.009Z,2.40
2022-11-07T13:01:09.379Z,2.30
2022-11-07T13:06:08.555Z,3.00
2022-11-07T13:11:07.519Z,2.30
2022-11-07T13:16:15.472Z,3.00
2022-11-07T13:21:06.313Z,2.90
2022-11-07T13:26:20.318Z,2.60
2022-11-07T13:31:07.749Z,2.40
2022-11-07T13:36:03.763Z,2.20
2022-11-07T13:41:04.040Z,2.10
2022-11-07T13:46:03.249Z,2.60
2022-11-07T13:51:02.539Z,1.50
2022-11-07T13:56:01.684Z,1.80
2022-11-07T14:01:01.197Z,1.80
2022-11-07T14:05:59.057Z,1.40
2022-11-07T14:10:59.511Z,1.40
2022-11-07T14:15:59.551Z,1.30
2022-11-07T14:20:55.772Z,1.40
2022-11-07T14:25:57.996Z,1.70
2022-11-07T14:30:55.143Z,1.60
2022-11-07T14:35:54.443Z,1.90
2022-11-07T14:40:54.559Z,1.70
2022-11-07T14:50:52.326Z,2.10
2022-11-07T14:55:56.560Z,3.50
2022-11-07T15:00:50.729Z,6.60
2022-11-07T15:05:52.128Z,7.40
2022-11-07T15:10:49.091Z,4.50
2022-11-07T15:15:47.370Z,5.50
2022-11-07T15:20:47.631Z,5.50
2022-11-07T15:25:45.857Z,6.20
2022-11-07T15:30:46.054Z,4.20
2022-11-07T15:35:45.367Z,4.90
2022-11-07T15:40:43.687Z,4.90
2022-11-07T15:45:44.666Z,5.60
2022-11-07T15:50:44.240Z,8.90
2022-11-07T15:55:42.219Z,4.60
2022-11-07T16:00:42.492Z,6.40
2022-11-07T16:05:42.401Z,6.30
2022-11-07T16:10:40.737Z,5.70
2022-11-07T16:15:39.894Z,6.90
2022-11-07T16:20:38.022Z,7.80
2022-11-07T16:25:37.346Z,7.90
2022-11-07T16:30:37.863Z,7.00
2022-11-07T16:35:36.155Z,7.20
2022-11-07T16:40:36.395Z,6.00
2022-11-07T16:45:34.345Z,6.30
2022-11-07T16:50:33.680Z,5.50
2022-11-07T16:55:33.009Z,5.40
2022-11-07T17:00:33.387Z,5.30
2022-11-07T17:05:31.396Z,5.00
2022-11-07T17:10:29.542Z,6.60
2022-11-07T17:15:33.844Z,6.00
2022-11-07T17:21:01.085Z,6.40
2022-11-07T17:25:29.245Z,9.40
2022-11-07T17:30:29.385Z,8.10
2022-11-07T17:35:32.608Z,8.60
2022-11-07T17:40:29.901Z,8.40
2022-11-07T17:45:25.389Z,5.90
2022-11-07T17:50:24.708Z,6.00
2022-11-07T17:55:24.114Z,7.90
2022-11-07T18:00:25.161Z,7.60
2022-11-07T18:05:23.063Z,8.70
2022-11-07T18:10:21.643Z,9.90
2022-11-07T18:15:20.412Z,10.10
2022-11-07T18:20:20.093Z,8.90
2022-11-07T18:25:20.186Z,8.10
2022-11-07T18:30:18.422Z,8.40
2022-11-07T18:35:17.682Z,7.40
2022-11-07T18:40:18.662Z,6.40
2022-11-07T18:45:16.306Z,7.70
2022-11-07T18:50:15.481Z,7.20
2022-11-07T18:55:16.568Z,6.10
2022-11-07T19:00:14.520Z,5.80
2022-11-07T19:05:13.196Z,68.50
2022-11-07T19:10:12.292Z,86.00
2022-11-07T19:15:11.172Z,51.90
2022-11-07T19:20:11.696Z,48.60
2022-11-07T19:25:10.884Z,45.50
2022-11-07T19:30:09.351Z,115.20
2022-11-07T19:35:08.301Z,120.70
2022-11-07T19:40:07.821Z,188.70
2022-11-07T19:45:05.588Z,212.30
2022-11-07T19:50:06.745Z,152.60
2022-11-07T19:55:05.498Z,122.90
2022-11-07T20:00:04.650Z,120.90
2022-11-07T20:05:07.825Z,82.70
2022-11-07T20:10:04.104Z,73.50
2022-11-07T20:15:03.068Z,105.10
2022-11-07T20:20:06.137Z,130.00
2022-11-07T20:25:00.946Z,93.70
2022-11-07T20:30:00.267Z,80.10
2022-11-07T20:35:00.429Z,72.40
2022-11-07T20:39:57.610Z,67.90
2022-11-07T20:44:58.520Z,50.90
2022-11-07T20:49:57.233Z,107.80
2022-11-07T20:54:57.258Z,141.00
2022-11-07T20:59:55.371Z,99.90
2022-11-07T21:05:16.633Z,139.10
2022-11-07T21:09:54.985Z,135.40
2022-11-07T21:14:54.021Z,42.40
2022-11-07T21:19:53.412Z,58.40
2022-11-07T21:24:51.789Z,100.80
2022-11-07T21:29:51.579Z,80.40
2022-11-07T21:34:49.924Z,73.00
2022-11-07T21:39:49.051Z,109.30
2022-11-07T21:44:49.561Z,107.10
2022-11-07T21:49:46.787Z,77.90
2022-11-07T21:54:50.045Z,101.00
2022-11-07T21:59:46.243Z,131.90
2022-11-07T22:04:44.505Z,101.60
2022-11-07T22:09:45.646Z,44.10
2022-11-07T22:14:43.818Z,101.30
2022-11-07T22:19:42.999Z,183.70
2022-11-07T22:24:42.386Z,189.70
2022-11-07T22:29:40.600Z,138.80
2022-11-07T22:34:40.719Z,152.70
2022-11-07T22:39:39.939Z,159.10
2022-11-07T22:44:38.209Z,100.10
2022-11-07T22:49:39.441Z,172.90
2022-11-07T22:54:36.714Z,161.20
2022-11-07T22:59:36.965Z,174.20
2022-11-07T23:04:37.173Z,246.50
2022-11-07T23:09:35.438Z,200.10
2022-11-07T23:14:34.693Z,135.70
2022-11-07T23:19:34.879Z,321.10
2022-11-07T23:24:33.138Z,238.70
2022-11-07T23:29:31.413Z,199.40
2022-11-07T23:34:30.628Z,153.20
2022-11-07T23:39:30.906Z,239.20
2022-11-07T23:44:30.151Z,182.70
2022-11-07T23:49:28.395Z,165.60
2022-11-07T23:54:28.669Z,134.90
2022-11-07T23:59:26.991Z,132.40
